sensor_id;sensor_type;location;lat;lon;timestamp;P1;durP1;ratioP1;P2;durP2;ratioP2
25327;SDS011;13279;51.300;12.394;2023-08-21T00:02:24;7.90;;;3.93;;
25327;SDS011;13279;51.300;12.394;2023-08-21T00:04:53;8.30;;;3.97;;
25327;SDS011;13279;51.300;12.394;2023-08-21T00:07:20;5.00;;;3.60;;
25327;SDS011;13279;51.300;12.394;2023-08-21T00:09:49;4.70;;;4.00;;
25327;SDS011;13279;51.300;12.394;2023-08-21T00:12:17;5.60;;;3.40;;
25327;SDS011;13279;51.300;12.394;2023-08-21T00:14:44;4.77;;;3.73;;
25327;SDS011;13279;51.300;12.394;2023-08-21T00:17:12;4.60;;;3.23;;
25327;SDS011;13279;51.300;12.394;2023-08-21T00:19:39;4.77;;;4.10;;
25327;SDS011;13279;51.300;12.394;2023-08-21T00:22:07;6.40;;;3.97;;
25327;SDS011;13279;51.300;12.394;2023-08-21T00:24:34;6.33;;;3.97;;
25327;SDS011;13279;51.300;12.394;2023-08-21T00:27:03;6.30;;;4.03;;
25327;SDS011;13279;51.300;12.394;2023-08-21T00:29:31;4.97;;;3.80;;
25327;SDS011;13279;51.300;12.394;2023-08-21T00:31:58;4.13;;;3.73;;
25327;SDS011;13279;51.300;12.394;2023-08-21T00:34:26;6.90;;;4.00;;
25327;SDS011;13279;51.300;12.394;2023-08-21T00:36:54;6.97;;;4.30;;
25327;SDS011;13279;51.300;12.394;2023-08-21T00:39:21;6.53;;;3.77;;
25327;SDS011;13279;51.300;12.394;2023-08-21T00:41:49;8.20;;;4.10;;
25327;SDS011;13279;51.300;12.394;2023-08-21T00:44:17;7.23;;;4.50;;
25327;SDS011;13279;51.300;12.394;2023-08-21T00:46:45;5.40;;;4.00;;
25327;SDS011;13279;51.300;12.394;2023-08-21T00:49:14;9.43;;;4.20;;
25327;SDS011;13279;51.300;12.394;2023-08-21T00:51:42;7.50;;;4.30;;
25327;SDS011;13279;51.300;12.394;2023-08-21T00:54:11;5.90;;;3.80;;
25327;SDS011;13279;51.300;12.394;2023-08-21T00:56:39;8.07;;;4.10;;
25327;SDS011;13279;51.300;12.394;2023-08-21T00:59:06;5.77;;;3.93;;
25327;SDS011;13279;51.300;12.394;2023-08-21T01:01:37;6.03;;;3.90;;
25327;SDS011;13279;51.300;12.394;2023-08-21T01:04:05;5.67;;;3.27;;
25327;SDS011;13279;51.300;12.394;2023-08-21T01:06:34;5.70;;;3.90;;
25327;SDS011;13279;51.300;12.394;2023-08-21T01:09:02;10.43;;;3.73;;
25327;SDS011;13279;51.300;12.394;2023-08-21T01:11:35;5.20;;;3.57;;
25327;SDS011;13279;51.300;12.394;2023-08-21T01:14:12;6.70;;;3.70;;
25327;SDS011;13279;51.300;12.394;2023-08-21T01:16:45;5.30;;;3.30;;
25327;SDS011;13279;51.300;12.394;2023-08-21T01:19:24;6.93;;;3.83;;
25327;SDS011;13279;51.300;12.394;2023-08-21T01:21:57;5.70;;;4.17;;
25327;SDS011;13279;51.300;12.394;2023-08-21T01:24:27;5.77;;;3.60;;
25327;SDS011;13279;51.300;12.394;2023-08-21T01:26:55;8.73;;;4.47;;
25327;SDS011;13279;51.300;12.394;2023-08-21T01:29:22;5.60;;;3.67;;
25327;SDS011;13279;51.300;12.394;2023-08-21T01:31:50;3.83;;;3.23;;
25327;SDS011;13279;51.300;12.394;2023-08-21T01:34:25;5.77;;;4.20;;
25327;SDS011;13279;51.300;12.394;2023-08-21T01:36:54;4.97;;;3.53;;
25327;SDS011;13279;51.300;12.394;2023-08-21T01:39:22;6.50;;;4.67;;
25327;SDS011;13279;51.300;12.394;2023-08-21T01:41:51;5.70;;;3.93;;
25327;SDS011;13279;51.300;12.394;2023-08-21T01:44:20;12.57;;;3.73;;
25327;SDS011;13279;51.300;12.394;2023-08-21T01:46:47;5.57;;;4.57;;
25327;SDS011;13279;51.300;12.394;2023-08-21T01:49:15;5.97;;;4.00;;
25327;SDS011;13279;51.300;12.394;2023-08-21T01:51:45;5.23;;;4.40;;
25327;SDS011;13279;51.300;12.394;2023-08-21T01:54:13;10.67;;;3.80;;
25327;SDS011;13279;51.300;12.394;2023-08-21T01:56:40;9.07;;;4.47;;
25327;SDS011;13279;51.300;12.394;2023-08-21T01:59:09;5.67;;;4.27;;
25327;SDS011;13279;51.300;12.394;2023-08-21T02:01:36;6.53;;;4.83;;
25327;SDS011;13279;51.300;12.394;2023-08-21T02:04:04;6.37;;;3.87;;
25327;SDS011;13279;51.300;12.394;2023-08-21T02:06:31;11.23;;;4.17;;
25327;SDS011;13279;51.300;12.394;2023-08-21T02:08:59;7.33;;;4.47;;
25327;SDS011;13279;51.300;12.394;2023-08-21T02:11:26;5.93;;;4.40;;
25327;SDS011;13279;51.300;12.394;2023-08-21T02:13:54;8.77;;;3.90;;
25327;SDS011;13279;51.300;12.394;2023-08-21T02:16:23;7.47;;;4.17;;
25327;SDS011;13279;51.300;12.394;2023-08-21T02:18:51;5.07;;;3.90;;
25327;SDS011;13279;51.300;12.394;2023-08-21T02:21:19;5.57;;;4.33;;
25327;SDS011;13279;51.300;12.394;2023-08-21T02:23:47;9.07;;;3.87;;
25327;SDS011;13279;51.300;12.394;2023-08-21T02:26:14;8.33;;;4.33;;
25327;SDS011;13279;51.300;12.394;2023-08-21T02:28:42;11.20;;;4.67;;
25327;SDS011;13279;51.300;12.394;2023-08-21T02:31:11;6.47;;;4.20;;
25327;SDS011;13279;51.300;12.394;2023-08-21T02:33:40;4.17;;;3.77;;
25327;SDS011;13279;51.300;12.394;2023-08-21T02:36:07;5.33;;;4.37;;
25327;SDS011;13279;51.300;12.394;2023-08-21T02:38:35;5.50;;;3.53;;
25327;SDS011;13279;51.300;12.394;2023-08-21T02:41:03;9.70;;;4.27;;
25327;SDS011;13279;51.300;12.394;2023-08-21T02:43:30;13.80;;;4.20;;
25327;SDS011;13279;51.300;12.394;2023-08-21T02:45:57;8.83;;;4.00;;
25327;SDS011;13279;51.300;12.394;2023-08-21T02:48:25;5.30;;;3.90;;
25327;SDS011;13279;51.300;12.394;2023-08-21T02:50:54;10.73;;;3.83;;
25327;SDS011;13279;51.300;12.394;2023-08-21T02:53:22;8.20;;;4.20;;
25327;SDS011;13279;51.300;12.394;2023-08-21T02:55:49;10.17;;;4.20;;
25327;SDS011;13279;51.300;12.394;2023-08-21T02:58:17;7.27;;;4.80;;
25327;SDS011;13279;51.300;12.394;2023-08-21T03:00:44;7.00;;;4.33;;
25327;SDS011;13279;51.300;12.394;2023-08-21T03:03:11;5.93;;;4.63;;
25327;SDS011;13279;51.300;12.394;2023-08-21T03:05:39;5.87;;;3.83;;
25327;SDS011;13279;51.300;12.394;2023-08-21T03:08:08;7.00;;;4.37;;
25327;SDS011;13279;51.300;12.394;2023-08-21T03:10:35;9.63;;;4.60;;
25327;SDS011;13279;51.300;12.394;2023-08-21T03:13:03;9.60;;;4.13;;
25327;SDS011;13279;51.300;12.394;2023-08-21T03:15:31;6.57;;;4.60;;
25327;SDS011;13279;51.300;12.394;2023-08-21T03:17:58;8.93;;;4.27;;
25327;SDS011;13279;51.300;12.394;2023-08-21T03:20:26;9.40;;;4.80;;
25327;SDS011;13279;51.300;12.394;2023-08-21T03:22:56;9.70;;;4.27;;
25327;SDS011;13279;51.300;12.394;2023-08-21T03:25:25;10.13;;;5.10;;
25327;SDS011;13279;51.300;12.394;2023-08-21T03:27:53;5.63;;;4.50;;
25327;SDS011;13279;51.300;12.394;2023-08-21T03:30:22;8.40;;;4.50;;
25327;SDS011;13279;51.300;12.394;2023-08-21T03:32:49;4.97;;;4.17;;
25327;SDS011;13279;51.300;12.394;2023-08-21T03:35:17;9.83;;;4.20;;
25327;SDS011;13279;51.300;12.394;2023-08-21T03:37:45;8.40;;;4.23;;
25327;SDS011;13279;51.300;12.394;2023-08-21T03:40:14;13.37;;;5.10;;
25327;SDS011;13279;51.300;12.394;2023-08-21T03:42:43;10.90;;;5.00;;
25327;SDS011;13279;51.300;12.394;2023-08-21T03:45:11;9.47;;;4.40;;
25327;SDS011;13279;51.300;12.394;2023-08-21T03:47:38;8.47;;;4.83;;
25327;SDS011;13279;51.300;12.394;2023-08-21T03:50:13;10.10;;;4.60;;
25327;SDS011;13279;51.300;12.394;2023-08-21T03:52:41;4.77;;;4.37;;
25327;SDS011;13279;51.300;12.394;2023-08-21T03:55:09;11.57;;;5.00;;
25327;SDS011;13279;51.300;12.394;2023-08-21T03:57:38;8.90;;;5.03;;
25327;SDS011;13279;51.300;12.394;2023-08-21T04:00:08;7.20;;;4.70;;
25327;SDS011;13279;51.300;12.394;2023-08-21T04:02:41;9.77;;;5.27;;
25327;SDS011;13279;51.300;12.394;2023-08-21T04:05:09;9.30;;;4.90;;
25327;SDS011;13279;51.300;12.394;2023-08-21T04:07:37;7.10;;;5.20;;
25327;SDS011;13279;51.300;12.394;2023-08-21T04:10:05;8.57;;;5.20;;
25327;SDS011;13279;51.300;12.394;2023-08-21T04:12:33;4.97;;;4.43;;
25327;SDS011;13279;51.300;12.394;2023-08-21T04:15:01;6.83;;;5.20;;
25327;SDS011;13279;51.300;12.394;2023-08-21T04:17:30;12.00;;;4.90;;
25327;SDS011;13279;51.300;12.394;2023-08-21T04:19:58;11.30;;;5.17;;
25327;SDS011;13279;51.300;12.394;2023-08-21T04:22:26;12.47;;;5.23;;
25327;SDS011;13279;51.300;12.394;2023-08-21T04:24:53;8.47;;;4.73;;
25327;SDS011;13279;51.300;12.394;2023-08-21T04:27:21;8.00;;;4.40;;
25327;SDS011;13279;51.300;12.394;2023-08-21T04:29:48;12.63;;;4.53;;
25327;SDS011;13279;51.300;12.394;2023-08-21T04:32:16;9.87;;;5.40;;
25327;SDS011;13279;51.300;12.394;2023-08-21T04:34:46;11.27;;;5.50;;
25327;SDS011;13279;51.300;12.394;2023-08-21T04:37:13;5.60;;;4.73;;
25327;SDS011;13279;51.300;12.394;2023-08-21T04:39:41;12.53;;;4.80;;
25327;SDS011;13279;51.300;12.394;2023-08-21T04:42:09;7.13;;;4.63;;
25327;SDS011;13279;51.300;12.394;2023-08-21T04:44:37;11.67;;;4.90;;
25327;SDS011;13279;51.300;12.394;2023-08-21T04:47:21;10.37;;;4.70;;
25327;SDS011;13279;51.300;12.394;2023-08-21T04:49:54;8.93;;;4.20;;
25327;SDS011;13279;51.300;12.394;2023-08-21T04:52:23;8.07;;;4.50;;
25327;SDS011;13279;51.300;12.394;2023-08-21T04:54:53;7.33;;;4.73;;
25327;SDS011;13279;51.300;12.394;2023-08-21T04:57:20;9.40;;;4.53;;
25327;SDS011;13279;51.300;12.394;2023-08-21T04:59:49;9.53;;;5.03;;
25327;SDS011;13279;51.300;12.394;2023-08-21T05:02:18;8.67;;;5.03;;
25327;SDS011;13279;51.300;12.394;2023-08-21T05:04:47;9.17;;;5.37;;
25327;SDS011;13279;51.300;12.394;2023-08-21T05:07:17;11.90;;;5.53;;
25327;SDS011;13279;51.300;12.394;2023-08-21T05:09:44;7.27;;;5.10;;
25327;SDS011;13279;51.300;12.394;2023-08-21T05:12:13;8.43;;;5.63;;
25327;SDS011;13279;51.300;12.394;2023-08-21T05:14:40;9.43;;;5.37;;
25327;SDS011;13279;51.300;12.394;2023-08-21T05:17:07;7.70;;;5.73;;
25327;SDS011;13279;51.300;12.394;2023-08-21T05:19:35;13.33;;;5.83;;
25327;SDS011;13279;51.300;12.394;2023-08-21T05:22:02;12.37;;;5.07;;
25327;SDS011;13279;51.300;12.394;2023-08-21T05:24:32;6.60;;;5.80;;
25327;SDS011;13279;51.300;12.394;2023-08-21T05:27:03;8.47;;;5.50;;
25327;SDS011;13279;51.300;12.394;2023-08-21T05:29:31;8.17;;;6.13;;
25327;SDS011;13279;51.300;12.394;2023-08-21T05:32:00;13.43;;;6.63;;
25327;SDS011;13279;51.300;12.394;2023-08-21T05:34:28;15.27;;;5.83;;
25327;SDS011;13279;51.300;12.394;2023-08-21T05:36:55;11.60;;;5.70;;
25327;SDS011;13279;51.300;12.394;2023-08-21T05:39:24;14.57;;;6.07;;
25327;SDS011;13279;51.300;12.394;2023-08-21T05:41:53;10.53;;;6.90;;
25327;SDS011;13279;51.300;12.394;2023-08-21T05:44:21;10.50;;;6.60;;
25327;SDS011;13279;51.300;12.394;2023-08-21T05:46:48;12.93;;;6.17;;
25327;SDS011;13279;51.300;12.394;2023-08-21T05:49:16;15.43;;;6.33;;
25327;SDS011;13279;51.300;12.394;2023-08-21T05:51:43;12.93;;;6.20;;
25327;SDS011;13279;51.300;12.394;2023-08-21T05:54:11;8.93;;;7.00;;
25327;SDS011;13279;51.300;12.394;2023-08-21T05:56:40;13.87;;;6.33;;
25327;SDS011;13279;51.300;12.394;2023-08-21T05:59:10;14.30;;;7.13;;
25327;SDS011;13279;51.300;12.394;2023-08-21T06:01:38;11.97;;;6.87;;
25327;SDS011;13279;51.300;12.394;2023-08-21T06:04:05;10.47;;;6.97;;
25327;SDS011;13279;51.300;12.394;2023-08-21T06:06:42;17.40;;;6.60;;
25327;SDS011;13279;51.300;12.394;2023-08-21T06:09:09;11.00;;;5.40;;
25327;SDS011;13279;51.300;12.394;2023-08-21T06:11:38;16.73;;;7.37;;
25327;SDS011;13279;51.300;12.394;2023-08-21T06:14:06;26.23;;;7.73;;
25327;SDS011;13279;51.300;12.394;2023-08-21T06:16:35;15.30;;;7.37;;
25327;SDS011;13279;51.300;12.394;2023-08-21T06:19:02;23.80;;;7.30;;
25327;SDS011;13279;51.300;12.394;2023-08-21T06:21:30;13.43;;;6.43;;
25327;SDS011;13279;51.300;12.394;2023-08-21T06:23:57;11.37;;;6.13;;
25327;SDS011;13279;51.300;12.394;2023-08-21T06:26:25;7.27;;;6.37;;
25327;SDS011;13279;51.300;12.394;2023-08-21T06:28:53;13.03;;;5.93;;
25327;SDS011;13279;51.300;12.394;2023-08-21T06:31:20;9.60;;;5.80;;
25327;SDS011;13279;51.300;12.394;2023-08-21T06:33:50;9.40;;;5.47;;
25327;SDS011;13279;51.300;12.394;2023-08-21T06:36:17;11.77;;;5.90;;
25327;SDS011;13279;51.300;12.394;2023-08-21T06:38:45;14.07;;;5.47;;
25327;SDS011;13279;51.300;12.394;2023-08-21T06:41:12;6.30;;;5.70;;
25327;SDS011;13279;51.300;12.394;2023-08-21T06:43:41;20.33;;;5.63;;
25327;SDS011;13279;51.300;12.394;2023-08-21T06:46:09;13.80;;;5.33;;
25327;SDS011;13279;51.300;12.394;2023-08-21T06:48:37;9.77;;;4.53;;
25327;SDS011;13279;51.300;12.394;2023-08-21T06:51:07;12.63;;;6.33;;
25327;SDS011;13279;51.300;12.394;2023-08-21T06:53:36;19.53;;;5.73;;
25327;SDS011;13279;51.300;12.394;2023-08-21T06:56:03;6.40;;;4.97;;
25327;SDS011;13279;51.300;12.394;2023-08-21T06:58:31;8.90;;;4.60;;
25327;SDS011;13279;51.300;12.394;2023-08-21T07:00:59;8.97;;;4.63;;
25327;SDS011;13279;51.300;12.394;2023-08-21T07:03:27;17.30;;;5.07;;
25327;SDS011;13279;51.300;12.394;2023-08-21T07:05:54;12.23;;;5.70;;
25327;SDS011;13279;51.300;12.394;2023-08-21T07:08:24;17.07;;;5.13;;
25327;SDS011;13279;51.300;12.394;2023-08-21T07:10:52;8.40;;;5.10;;
25327;SDS011;13279;51.300;12.394;2023-08-21T07:13:21;9.93;;;5.73;;
25327;SDS011;13279;51.300;12.394;2023-08-21T07:15:48;13.03;;;4.83;;
25327;SDS011;13279;51.300;12.394;2023-08-21T07:18:19;13.80;;;5.07;;
25327;SDS011;13279;51.300;12.394;2023-08-21T07:20:46;7.77;;;5.50;;
25327;SDS011;13279;51.300;12.394;2023-08-21T07:23:14;17.50;;;4.57;;
25327;SDS011;13279;51.300;12.394;2023-08-21T07:25:42;6.70;;;4.57;;
25327;SDS011;13279;51.300;12.394;2023-08-21T07:28:11;11.00;;;4.90;;
25327;SDS011;13279;51.300;12.394;2023-08-21T07:30:38;10.97;;;5.73;;
25327;SDS011;13279;51.300;12.394;2023-08-21T07:33:06;11.87;;;5.57;;
25327;SDS011;13279;51.300;12.394;2023-08-21T07:35:33;11.80;;;4.93;;
25327;SDS011;13279;51.300;12.394;2023-08-21T07:38:01;11.17;;;4.83;;
25327;SDS011;13279;51.300;12.394;2023-08-21T07:40:29;10.80;;;4.73;;
25327;SDS011;13279;51.300;12.394;2023-08-21T07:42:58;7.67;;;4.67;;
25327;SDS011;13279;51.300;12.394;2023-08-21T07:45:25;14.30;;;5.50;;
25327;SDS011;13279;51.300;12.394;2023-08-21T07:47:53;7.20;;;4.10;;
25327;SDS011;13279;51.300;12.394;2023-08-21T07:50:20;11.17;;;5.63;;
25327;SDS011;13279;51.300;12.394;2023-08-21T07:52:48;11.13;;;5.00;;
25327;SDS011;13279;51.300;12.394;2023-08-21T07:55:15;8.83;;;4.80;;
25327;SDS011;13279;51.300;12.394;2023-08-21T07:57:43;10.33;;;5.70;;
25327;SDS011;13279;51.300;12.394;2023-08-21T08:00:13;10.37;;;5.27;;
25327;SDS011;13279;51.300;12.394;2023-08-21T08:02:42;8.67;;;5.77;;
25327;SDS011;13279;51.300;12.394;2023-08-21T08:05:10;12.83;;;6.77;;
25327;SDS011;13279;51.300;12.394;2023-08-21T08:07:37;10.07;;;5.90;;
25327;SDS011;13279;51.300;12.394;2023-08-21T08:10:05;15.10;;;6.00;;
25327;SDS011;13279;51.300;12.394;2023-08-21T08:12:33;12.10;;;5.73;;
25327;SDS011;13279;51.300;12.394;2023-08-21T08:15:00;11.37;;;6.17;;
25327;SDS011;13279;51.300;12.394;2023-08-21T08:17:29;14.37;;;6.70;;
25327;SDS011;13279;51.300;12.394;2023-08-21T08:19:57;12.77;;;6.70;;
25327;SDS011;13279;51.300;12.394;2023-08-21T08:22:24;13.60;;;6.37;;
25327;SDS011;13279;51.300;12.394;2023-08-21T08:24:51;11.97;;;5.37;;
25327;SDS011;13279;51.300;12.394;2023-08-21T08:27:19;12.20;;;5.23;;
25327;SDS011;13279;51.300;12.394;2023-08-21T08:29:46;10.27;;;5.10;;
25327;SDS011;13279;51.300;12.394;2023-08-21T08:32:14;11.63;;;4.30;;
25327;SDS011;13279;51.300;12.394;2023-08-21T08:34:42;12.33;;;4.70;;
25327;SDS011;13279;51.300;12.394;2023-08-21T08:37:12;8.47;;;4.33;;
25327;SDS011;13279;51.300;12.394;2023-08-21T08:39:39;7.30;;;3.17;;
25327;SDS011;13279;51.300;12.394;2023-08-21T08:42:07;7.00;;;4.10;;
25327;SDS011;13279;51.300;12.394;2023-08-21T08:44:35;7.17;;;4.43;;
25327;SDS011;13279;51.300;12.394;2023-08-21T08:47:04;13.43;;;4.13;;
25327;SDS011;13279;51.300;12.394;2023-08-21T08:49:31;9.67;;;4.43;;
25327;SDS011;13279;51.300;12.394;2023-08-21T08:52:00;11.57;;;4.03;;
25327;SDS011;13279;51.300;12.394;2023-08-21T08:54:29;8.07;;;4.07;;
25327;SDS011;13279;51.300;12.394;2023-08-21T08:56:56;7.47;;;3.60;;
25327;SDS011;13279;51.300;12.394;2023-08-21T08:59:24;6.35;;;3.00;;
25327;SDS011;13279;51.300;12.394;2023-08-21T09:01:52;12.00;;;4.00;;
25327;SDS011;13279;51.300;12.394;2023-08-21T09:04:20;9.83;;;3.33;;
25327;SDS011;13279;51.300;12.394;2023-08-21T09:06:49;5.20;;;3.30;;
25327;SDS011;13279;51.300;12.394;2023-08-21T09:09:17;4.00;;;3.15;;
25327;SDS011;13279;51.300;12.394;2023-08-21T09:11:46;6.90;;;3.25;;
25327;SDS011;13279;51.300;12.394;2023-08-21T09:14:14;3.97;;;3.03;;
25327;SDS011;13279;51.300;12.394;2023-08-21T09:16:58;8.50;;;3.63;;
25327;SDS011;13279;51.300;12.394;2023-08-21T09:19:29;8.35;;;3.50;;
25327;SDS011;13279;51.300;12.394;2023-08-21T09:21:56;5.60;;;3.90;;
25327;SDS011;13279;51.300;12.394;2023-08-21T09:24:25;6.90;;;3.60;;
25327;SDS011;13279;51.300;12.394;2023-08-21T09:26:52;7.45;;;3.40;;
25327;SDS011;13279;51.300;12.394;2023-08-21T09:29:20;4.30;;;3.40;;
25327;SDS011;13279;51.300;12.394;2023-08-21T09:31:47;6.20;;;3.60;;
25327;SDS011;13279;51.300;12.394;2023-08-21T09:34:15;7.22;;;3.70;;
25327;SDS011;13279;51.300;12.394;2023-08-21T09:36:43;5.47;;;3.28;;
25327;SDS011;13279;51.300;12.394;2023-08-21T09:39:21;6.82;;;4.03;;
25327;SDS011;13279;51.300;12.394;2023-08-21T09:41:55;8.85;;;3.47;;
25327;SDS011;13279;51.300;12.394;2023-08-21T09:44:24;5.22;;;3.53;;
25327;SDS011;13279;51.300;12.394;2023-08-21T09:46:51;13.45;;;3.53;;
25327;SDS011;13279;51.300;12.394;2023-08-21T09:49:19;8.25;;;3.50;;
25327;SDS011;13279;51.300;12.394;2023-08-21T09:51:48;8.30;;;3.53;;
25327;SDS011;13279;51.300;12.394;2023-08-21T09:54:16;8.68;;;3.22;;
25327;SDS011;13279;51.300;12.394;2023-08-21T09:56:44;10.10;;;3.05;;
25327;SDS011;13279;51.300;12.394;2023-08-21T09:59:16;4.78;;;3.40;;
25327;SDS011;13279;51.300;12.394;2023-08-21T10:01:44;5.32;;;3.05;;
25327;SDS011;13279;51.300;12.394;2023-08-21T10:04:14;6.30;;;3.30;;
25327;SDS011;13279;51.300;12.394;2023-08-21T10:06:43;6.50;;;2.85;;
25327;SDS011;13279;51.300;12.394;2023-08-21T10:09:13;4.50;;;2.58;;
25327;SDS011;13279;51.300;12.394;2023-08-21T10:11:42;6.07;;;2.80;;
25327;SDS011;13279;51.300;12.394;2023-08-21T10:14:10;5.00;;;3.25;;
25327;SDS011;13279;51.300;12.394;2023-08-21T10:16:40;5.53;;;3.25;;
25327;SDS011;13279;51.300;12.394;2023-08-21T10:19:08;4.95;;;3.28;;
25327;SDS011;13279;51.300;12.394;2023-08-21T10:21:41;5.13;;;3.10;;
25327;SDS011;13279;51.300;12.394;2023-08-21T10:24:08;5.15;;;3.00;;
25327;SDS011;13279;51.300;12.394;2023-08-21T10:26:37;3.83;;;2.92;;
25327;SDS011;13279;51.300;12.394;2023-08-21T10:29:05;5.30;;;3.00;;
25327;SDS011;13279;51.300;12.394;2023-08-21T10:31:34;5.85;;;2.67;;
25327;SDS011;13279;51.300;12.394;2023-08-21T10:34:05;7.45;;;2.83;;
25327;SDS011;13279;51.300;12.394;2023-08-21T10:36:37;4.25;;;3.10;;
25327;SDS011;13279;51.300;12.394;2023-08-21T10:39:04;3.55;;;2.60;;
25327;SDS011;13279;51.300;12.394;2023-08-21T10:41:40;3.88;;;2.47;;
25327;SDS011;13279;51.300;12.394;2023-08-21T10:44:07;5.20;;;2.70;;
25327;SDS011;13279;51.300;12.394;2023-08-21T10:46:51;5.85;;;3.00;;
25327;SDS011;13279;51.300;12.394;2023-08-21T10:49:21;4.30;;;2.85;;
25327;SDS011;13279;51.300;12.394;2023-08-21T10:51:49;3.88;;;2.83;;
25327;SDS011;13279;51.300;12.394;2023-08-21T10:54:18;4.95;;;2.88;;
25327;SDS011;13279;51.300;12.394;2023-08-21T10:56:45;4.97;;;2.80;;
25327;SDS011;13279;51.300;12.394;2023-08-21T10:59:13;9.95;;;3.80;;
25327;SDS011;13279;51.300;12.394;2023-08-21T11:01:43;5.55;;;2.95;;
25327;SDS011;13279;51.300;12.394;2023-08-21T11:04:11;5.55;;;3.03;;
25327;SDS011;13279;51.300;12.394;2023-08-21T11:06:43;5.47;;;3.08;;
25327;SDS011;13279;51.300;12.394;2023-08-21T11:09:12;8.32;;;2.97;;
25327;SDS011;13279;51.300;12.394;2023-08-21T11:11:43;3.50;;;2.92;;
25327;SDS011;13279;51.300;12.394;2023-08-21T11:14:11;6.47;;;2.90;;
25327;SDS011;13279;51.300;12.394;2023-08-21T11:16:38;4.28;;;3.08;;
25327;SDS011;13279;51.300;12.394;2023-08-21T11:19:07;7.65;;;3.10;;
25327;SDS011;13279;51.300;12.394;2023-08-21T11:21:34;5.90;;;3.13;;
25327;SDS011;13279;51.300;12.394;2023-08-21T11:24:03;6.65;;;2.80;;
25327;SDS011;13279;51.300;12.394;2023-08-21T11:26:31;4.90;;;2.42;;
25327;SDS011;13279;51.300;12.394;2023-08-21T11:28:59;5.70;;;2.63;;
25327;SDS011;13279;51.300;12.394;2023-08-21T11:31:28;6.82;;;3.03;;
25327;SDS011;13279;51.300;12.394;2023-08-21T11:33:55;5.30;;;2.97;;
25327;SDS011;13279;51.300;12.394;2023-08-21T11:36:23;4.65;;;2.78;;
25327;SDS011;13279;51.300;12.394;2023-08-21T11:38:57;3.85;;;2.80;;
25327;SDS011;13279;51.300;12.394;2023-08-21T11:41:27;4.00;;;2.83;;
25327;SDS011;13279;51.300;12.394;2023-08-21T11:43:57;6.13;;;2.88;;
25327;SDS011;13279;51.300;12.394;2023-08-21T11:46:29;4.45;;;3.13;;
25327;SDS011;13279;51.300;12.394;2023-08-21T11:48:56;4.75;;;2.40;;
25327;SDS011;13279;51.300;12.394;2023-08-21T11:51:24;3.47;;;3.13;;
25327;SDS011;13279;51.300;12.394;2023-08-21T11:53:52;5.97;;;2.58;;
25327;SDS011;13279;51.300;12.394;2023-08-21T11:56:20;4.20;;;2.78;;
25327;SDS011;13279;51.300;12.394;2023-08-21T11:58:48;7.80;;;3.25;;
25327;SDS011;13279;51.300;12.394;2023-08-21T12:01:16;4.30;;;2.95;;
25327;SDS011;13279;51.300;12.394;2023-08-21T12:03:44;9.18;;;2.90;;
25327;SDS011;13279;51.300;12.394;2023-08-21T12:06:12;5.53;;;3.03;;
25327;SDS011;13279;51.300;12.394;2023-08-21T12:08:39;6.43;;;3.15;;
25327;SDS011;13279;51.300;12.394;2023-08-21T12:11:07;7.38;;;3.30;;
25327;SDS011;13279;51.300;12.394;2023-08-21T12:13:34;7.80;;;3.35;;
25327;SDS011;13279;51.300;12.394;2023-08-21T12:16:04;5.07;;;3.20;;
25327;SDS011;13279;51.300;12.394;2023-08-21T12:18:31;4.93;;;3.53;;
25327;SDS011;13279;51.300;12.394;2023-08-21T12:20:59;6.93;;;3.38;;
25327;SDS011;13279;51.300;12.394;2023-08-21T12:23:27;5.07;;;3.58;;
25327;SDS011;13279;51.300;12.394;2023-08-21T12:25:55;7.97;;;3.60;;
25327;SDS011;13279;51.300;12.394;2023-08-21T12:28:23;5.65;;;4.20;;
25327;SDS011;13279;51.300;12.394;2023-08-21T12:30:50;4.25;;;3.85;;
25327;SDS011;13279;51.300;12.394;2023-08-21T12:33:20;9.25;;;3.38;;
25327;SDS011;13279;51.300;12.394;2023-08-21T12:35:48;6.88;;;3.72;;
25327;SDS011;13279;51.300;12.394;2023-08-21T12:38:15;4.97;;;3.47;;
25327;SDS011;13279;51.300;12.394;2023-08-21T12:40:42;4.88;;;3.30;;
25327;SDS011;13279;51.300;12.394;2023-08-21T12:43:10;5.10;;;3.70;;
25327;SDS011;13279;51.300;12.394;2023-08-21T12:45:38;6.70;;;3.45;;
25327;SDS011;13279;51.300;12.394;2023-08-21T12:48:05;8.38;;;3.40;;
25327;SDS011;13279;51.300;12.394;2023-08-21T12:50:35;5.72;;;3.45;;
25327;SDS011;13279;51.300;12.394;2023-08-21T12:53:03;5.38;;;3.88;;
25327;SDS011;13279;51.300;12.394;2023-08-21T12:55:30;3.80;;;3.45;;
25327;SDS011;13279;51.300;12.394;2023-08-21T12:57:58;4.78;;;3.38;;
25327;SDS011;13279;51.300;12.394;2023-08-21T13:00:26;7.63;;;3.97;;
25327;SDS011;13279;51.300;12.394;2023-08-21T13:02:53;3.95;;;3.40;;
25327;SDS011;13279;51.300;12.394;2023-08-21T13:05:21;3.67;;;3.35;;
25327;SDS011;13279;51.300;12.394;2023-08-21T13:07:50;4.57;;;3.25;;
25327;SDS011;13279;51.300;12.394;2023-08-21T13:10:18;6.25;;;3.53;;
25327;SDS011;13279;51.300;12.394;2023-08-21T13:12:45;4.47;;;3.30;;
25327;SDS011;13279;51.300;12.394;2023-08-21T13:15:14;4.82;;;3.42;;
25327;SDS011;13279;51.300;12.394;2023-08-21T13:17:41;3.40;;;2.97;;
25327;SDS011;13279;51.300;12.394;2023-08-21T13:20:10;5.13;;;3.13;;
25327;SDS011;13279;51.300;12.394;2023-08-21T13:22:45;3.97;;;3.22;;
25327;SDS011;13279;51.300;12.394;2023-08-21T13:25:15;5.80;;;3.30;;
25327;SDS011;13279;51.300;12.394;2023-08-21T13:27:44;4.63;;;3.35;;
25327;SDS011;13279;51.300;12.394;2023-08-21T13:30:12;4.05;;;3.35;;
25327;SDS011;13279;51.300;12.394;2023-08-21T13:32:40;3.83;;;2.83;;
25327;SDS011;13279;51.300;12.394;2023-08-21T13:35:07;4.07;;;2.92;;
25327;SDS011;13279;51.300;12.394;2023-08-21T13:37:35;4.63;;;3.00;;
25327;SDS011;13279;51.300;12.394;2023-08-21T13:40:05;6.10;;;2.70;;
25327;SDS011;13279;51.300;12.394;2023-08-21T13:42:40;4.57;;;2.97;;
25327;SDS011;13279;51.300;12.394;2023-08-21T13:45:09;3.63;;;2.70;;
25327;SDS011;13279;51.300;12.394;2023-08-21T13:47:37;3.65;;;2.95;;
25327;SDS011;13279;51.300;12.394;2023-08-21T13:50:06;2.83;;;2.63;;
25327;SDS011;13279;51.300;12.394;2023-08-21T13:52:35;3.20;;;2.88;;
25327;SDS011;13279;51.300;12.394;2023-08-21T13:55:04;6.85;;;2.58;;
25327;SDS011;13279;51.300;12.394;2023-08-21T13:57:32;3.30;;;2.88;;
25327;SDS011;13279;51.300;12.394;2023-08-21T14:00:02;4.97;;;2.97;;
25327;SDS011;13279;51.300;12.394;2023-08-21T14:02:33;4.20;;;2.60;;
25327;SDS011;13279;51.300;12.394;2023-08-21T14:05:01;2.97;;;2.55;;
25327;SDS011;13279;51.300;12.394;2023-08-21T14:07:30;2.72;;;2.53;;
25327;SDS011;13279;51.300;12.394;2023-08-21T14:09:57;4.10;;;2.92;;
25327;SDS011;13279;51.300;12.394;2023-08-21T14:12:25;2.67;;;2.47;;
25327;SDS011;13279;51.300;12.394;2023-08-21T14:14:54;3.53;;;2.28;;
25327;SDS011;13279;51.300;12.394;2023-08-21T14:17:23;7.70;;;3.13;;
25327;SDS011;13279;51.300;12.394;2023-08-21T14:19:51;2.95;;;2.60;;
25327;SDS011;13279;51.300;12.394;2023-08-21T14:22:19;4.13;;;2.70;;
25327;SDS011;13279;51.300;12.394;2023-08-21T14:24:47;2.35;;;2.20;;
25327;SDS011;13279;51.300;12.394;2023-08-21T14:27:14;6.47;;;2.63;;
25327;SDS011;13279;51.300;12.394;2023-08-21T14:29:42;6.18;;;2.83;;
25327;SDS011;13279;51.300;12.394;2023-08-21T14:32:10;2.85;;;2.35;;
25327;SDS011;13279;51.300;12.394;2023-08-21T14:34:39;3.15;;;2.58;;
25327;SDS011;13279;51.300;12.394;2023-08-21T14:37:06;2.60;;;2.40;;
25327;SDS011;13279;51.300;12.394;2023-08-21T14:39:36;3.38;;;2.70;;